sensor_id;sensor_type;location;lat;lon;timestamp;temperature;humidity
24224;DHT22;12359;49.716;9.212;2023-07-13T00:00:19;21.70;99.90
24224;DHT22;12359;49.716;9.212;2023-07-13T00:02:46;21.60;99.90
24224;DHT22;12359;49.716;9.212;2023-07-13T00:05:11;21.60;99.90
24224;DHT22;12359;49.716;9.212;2023-07-13T00:07:37;21.50;99.90
24224;DHT22;12359;49.716;9.212;2023-07-13T00:10:04;21.50;99.90
24224;DHT22;12359;49.716;9.212;2023-07-13T00:12:32;21.50;99.90
24224;DHT22;12359;49.716;9.212;2023-07-13T00:15:00;21.50;99.90
24224;DHT22;12359;49.716;9.212;2023-07-13T00:17:26;21.50;99.90
24224;DHT22;12359;49.716;9.212;2023-07-13T00:19:53;21.50;99.90
24224;DHT22;12359;49.716;9.212;2023-07-13T00:22:21;21.50;99.90
24224;DHT22;12359;49.716;9.212;2023-07-13T00:24:47;21.40;99.90
24224;DHT22;12359;49.716;9.212;2023-07-13T00:27:13;21.30;99.90
24224;DHT22;12359;49.716;9.212;2023-07-13T00:29:39;21.10;99.90
24224;DHT22;12359;49.716;9.212;2023-07-13T00:32:06;20.90;99.90
24224;DHT22;12359;49.716;9.212;2023-07-13T00:34:32;20.70;99.90
24224;DHT22;12359;49.716;9.212;2023-07-13T00:36:58;20.60;99.90
24224;DHT22;12359;49.716;9.212;2023-07-13T00:39:24;20.50;99.90
24224;DHT22;12359;49.716;9.212;2023-07-13T00:41:51;20.30;1.00
24224;DHT22;12359;49.716;9.212;2023-07-13T00:44:18;20.30;1.00
24224;DHT22;12359;49.716;9.212;2023-07-13T00:46:45;20.20;1.00
24224;DHT22;12359;49.716;9.212;2023-07-13T00:49:15;20.10;1.00
24224;DHT22;12359;49.716;9.212;2023-07-13T00:54:20;20.00;1.00
24224;DHT22;12359;49.716;9.212;2023-07-13T00:56:50;19.90;1.00
24224;DHT22;12359;49.716;9.212;2023-07-13T00:59:18;19.80;1.00
24224;DHT22;12359;49.716;9.212;2023-07-13T01:01:44;19.70;1.00
24224;DHT22;12359;49.716;9.212;2023-07-13T01:04:10;19.60;8.60
24224;DHT22;12359;49.716;9.212;2023-07-13T01:06:37;19.50;93.90
24224;DHT22;12359;49.716;9.212;2023-07-13T01:09:04;19.30;99.90
24224;DHT22;12359;49.716;9.212;2023-07-13T01:11:30;19.20;99.90
24224;DHT22;12359;49.716;9.212;2023-07-13T01:13:55;19.10;99.90
24224;DHT22;12359;49.716;9.212;2023-07-13T01:16:26;19.10;99.90
24224;DHT22;12359;49.716;9.212;2023-07-13T01:18:53;19.00;99.90
24224;DHT22;12359;49.716;9.212;2023-07-13T01:21:18;18.90;99.90
24224;DHT22;12359;49.716;9.212;2023-07-13T01:23:44;18.80;99.90
24224;DHT22;12359;49.716;9.212;2023-07-13T01:26:10;18.80;99.90
24224;DHT22;12359;49.716;9.212;2023-07-13T01:28:37;18.80;1.00
24224;DHT22;12359;49.716;9.212;2023-07-13T01:31:03;18.70;1.00
24224;DHT22;12359;49.716;9.212;2023-07-13T01:33:29;18.80;1.00
24224;DHT22;12359;49.716;9.212;2023-07-13T01:35:55;18.80;1.00
24224;DHT22;12359;49.716;9.212;2023-07-13T01:38:24;18.80;99.90
24224;DHT22;12359;49.716;9.212;2023-07-13T01:40:51;18.80;99.90
24224;DHT22;12359;49.716;9.212;2023-07-13T01:43:17;18.70;1.00
24224;DHT22;12359;49.716;9.212;2023-07-13T01:45:43;18.60;1.00
24224;DHT22;12359;49.716;9.212;2023-07-13T01:48:10;18.60;1.00
24224;DHT22;12359;49.716;9.212;2023-07-13T01:50:36;18.50;9.20
24224;DHT22;12359;49.716;9.212;2023-07-13T01:53:02;18.50;99.90
24224;DHT22;12359;49.716;9.212;2023-07-13T01:55:29;18.40;99.90
24224;DHT22;12359;49.716;9.212;2023-07-13T01:57:55;18.30;99.90
24224;DHT22;12359;49.716;9.212;2023-07-13T02:00:21;18.30;1.00
24224;DHT22;12359;49.716;9.212;2023-07-13T02:02:46;18.30;33.50
24224;DHT22;12359;49.716;9.212;2023-07-13T02:05:13;18.20;99.90
24224;DHT22;12359;49.716;9.212;2023-07-13T02:07:39;18.20;99.90
24224;DHT22;12359;49.716;9.212;2023-07-13T02:10:06;18.10;99.90
24224;DHT22;12359;49.716;9.212;2023-07-13T02:12:33;18.20;1.00
24224;DHT22;12359;49.716;9.212;2023-07-13T02:14:59;18.10;1.00
24224;DHT22;12359;49.716;9.212;2023-07-13T02:17:26;18.10;10.30
24224;DHT22;12359;49.716;9.212;2023-07-13T02:19:52;18.10;99.90
24224;DHT22;12359;49.716;9.212;2023-07-13T02:22:18;18.00;99.90
24224;DHT22;12359;49.716;9.212;2023-07-13T02:24:44;17.90;1.00
24224;DHT22;12359;49.716;9.212;2023-07-13T02:27:09;17.90;1.00
24224;DHT22;12359;49.716;9.212;2023-07-13T02:29:35;17.80;38.20
24224;DHT22;12359;49.716;9.212;2023-07-13T02:32:01;17.80;99.90
24224;DHT22;12359;49.716;9.212;2023-07-13T02:34:27;17.70;99.90
24224;DHT22;12359;49.716;9.212;2023-07-13T02:36:52;17.70;99.90
24224;DHT22;12359;49.716;9.212;2023-07-13T02:39:18;17.70;99.90
24224;DHT22;12359;49.716;9.212;2023-07-13T02:41:44;17.60;99.90
24224;DHT22;12359;49.716;9.212;2023-07-13T02:44:11;17.60;99.90
24224;DHT22;12359;49.716;9.212;2023-07-13T02:46:37;17.60;1.00
24224;DHT22;12359;49.716;9.212;2023-07-13T02:49:04;17.50;99.90
24224;DHT22;12359;49.716;9.212;2023-07-13T02:51:30;17.40;99.90
24224;DHT22;12359;49.716;9.212;2023-07-13T02:53:56;17.40;99.90
24224;DHT22;12359;49.716;9.212;2023-07-13T02:56:26;17.30;99.90
24224;DHT22;12359;49.716;9.212;2023-07-13T02:58:52;17.30;99.90
24224;DHT22;12359;49.716;9.212;2023-07-13T03:01:19;17.20;1.00
24224;DHT22;12359;49.716;9.212;2023-07-13T03:03:47;17.10;99.90
24224;DHT22;12359;49.716;9.212;2023-07-13T03:06:14;17.10;99.90
24224;DHT22;12359;49.716;9.212;2023-07-13T03:08:41;17.00;99.90
24224;DHT22;12359;49.716;9.212;2023-07-13T03:11:12;17.00;99.90
24224;DHT22;12359;49.716;9.212;2023-07-13T03:13:38;17.00;99.90
24224;DHT22;12359;49.716;9.212;2023-07-13T03:16:05;16.90;48.50
24224;DHT22;12359;49.716;9.212;2023-07-13T03:18:31;16.80;99.90
24224;DHT22;12359;49.716;9.212;2023-07-13T03:20:57;16.80;99.90
24224;DHT22;12359;49.716;9.212;2023-07-13T03:23:23;16.70;99.90
24224;DHT22;12359;49.716;9.212;2023-07-13T03:25:50;16.70;99.90
24224;DHT22;12359;49.716;9.212;2023-07-13T03:28:16;16.60;26.30
24224;DHT22;12359;49.716;9.212;2023-07-13T03:30:42;16.60;99.90
24224;DHT22;12359;49.716;9.212;2023-07-13T03:33:08;16.50;99.90
24224;DHT22;12359;49.716;9.212;2023-07-13T03:35:34;16.50;1.00
24224;DHT22;12359;49.716;9.212;2023-07-13T03:38:00;16.50;1.00
24224;DHT22;12359;49.716;9.212;2023-07-13T03:40:28;16.50;14.80
24224;DHT22;12359;49.716;9.212;2023-07-13T03:42:53;16.60;29.30
24224;DHT22;12359;49.716;9.212;2023-07-13T03:45:19;16.60;99.90
24224;DHT22;12359;49.716;9.212;2023-07-13T03:47:45;16.60;98.20
24224;DHT22;12359;49.716;9.212;2023-07-13T03:50:11;16.60;44.00
24224;DHT22;12359;49.716;9.212;2023-07-13T03:52:37;16.60;99.90
24224;DHT22;12359;49.716;9.212;2023-07-13T03:55:03;16.60;99.90
24224;DHT22;12359;49.716;9.212;2023-07-13T03:57:29;16.60;98.50
24224;DHT22;12359;49.716;9.212;2023-07-13T03:59:54;16.60;99.90
24224;DHT22;12359;49.716;9.212;2023-07-13T04:02:20;16.60;99.90
24224;DHT22;12359;49.716;9.212;2023-07-13T04:04:46;16.50;99.90
24224;DHT22;12359;49.716;9.212;2023-07-13T04:07:12;16.60;99.90
24224;DHT22;12359;49.716;9.212;2023-07-13T04:09:37;16.60;1.00
24224;DHT22;12359;49.716;9.212;2023-07-13T04:12:04;16.70;1.00
24224;DHT22;12359;49.716;9.212;2023-07-13T04:14:30;16.80;99.90
24224;DHT22;12359;49.716;9.212;2023-07-13T04:16:55;16.80;99.90
24224;DHT22;12359;49.716;9.212;2023-07-13T04:19:21;16.90;99.90
24224;DHT22;12359;49.716;9.212;2023-07-13T04:21:47;17.00;31.60
24224;DHT22;12359;49.716;9.212;2023-07-13T04:24:12;17.20;1.00
24224;DHT22;12359;49.716;9.212;2023-07-13T04:26:38;17.30;29.80
24224;DHT22;12359;49.716;9.212;2023-07-13T04:29:06;17.40;99.90
24224;DHT22;12359;49.716;9.212;2023-07-13T04:31:32;17.50;1.00
24224;DHT22;12359;49.716;9.212;2023-07-13T04:33:58;17.50;99.90
24224;DHT22;12359;49.716;9.212;2023-07-13T04:36:25;17.60;99.90
24224;DHT22;12359;49.716;9.212;2023-07-13T04:38:52;17.60;2.40
24224;DHT22;12359;49.716;9.212;2023-07-13T04:41:19;17.60;99.90
24224;DHT22;12359;49.716;9.212;2023-07-13T04:43:45;17.70;99.90
24224;DHT22;12359;49.716;9.212;2023-07-13T04:46:13;17.70;39.70
24224;DHT22;12359;49.716;9.212;2023-07-13T04:48:39;17.80;1.00
24224;DHT22;12359;49.716;9.212;2023-07-13T04:51:06;17.80;1.00
24224;DHT22;12359;49.716;9.212;2023-07-13T04:53:32;17.90;1.00
24224;DHT22;12359;49.716;9.212;2023-07-13T04:56:00;18.00;21.30
24224;DHT22;12359;49.716;9.212;2023-07-13T04:58:26;18.10;99.90
24224;DHT22;12359;49.716;9.212;2023-07-13T05:00:52;18.30;44.60
24224;DHT22;12359;49.716;9.212;2023-07-13T05:03:18;18.30;99.90
24224;DHT22;12359;49.716;9.212;2023-07-13T05:05:55;18.40;64.30
24224;DHT22;12359;49.716;9.212;2023-07-13T05:08:21;18.50;1.00
24224;DHT22;12359;49.716;9.212;2023-07-13T05:10:46;18.60;99.90
24224;DHT22;12359;49.716;9.212;2023-07-13T05:13:12;18.80;95.40
24224;DHT22;12359;49.716;9.212;2023-07-13T05:15:38;18.90;99.90
24224;DHT22;12359;49.716;9.212;2023-07-13T05:18:03;19.10;99.90
24224;DHT22;12359;49.716;9.212;2023-07-13T05:20:29;19.20;48.00
24224;DHT22;12359;49.716;9.212;2023-07-13T05:22:55;19.20;23.50
24224;DHT22;12359;49.716;9.212;2023-07-13T05:25:20;19.30;8.90
24224;DHT22;12359;49.716;9.212;2023-07-13T05:27:47;19.40;1.00
24224;DHT22;12359;49.716;9.212;2023-07-13T05:30:13;19.20;99.90
24224;DHT22;12359;49.716;9.212;2023-07-13T05:32:39;19.20;1.00
24224;DHT22;12359;49.716;9.212;2023-07-13T05:35:05;19.30;1.00
24224;DHT22;12359;49.716;9.212;2023-07-13T05:37:31;19.30;99.90
24224;DHT22;12359;49.716;9.212;2023-07-13T05:39:56;19.40;99.90
24224;DHT22;12359;49.716;9.212;2023-07-13T05:42:22;19.70;99.90
24224;DHT22;12359;49.716;9.212;2023-07-13T05:44:48;20.00;42.20
24224;DHT22;12359;49.716;9.212;2023-07-13T05:47:14;20.30;99.90
24224;DHT22;12359;49.716;9.212;2023-07-13T05:49:40;20.60;99.90
24224;DHT22;12359;49.716;9.212;2023-07-13T05:52:06;20.90;29.50
24224;DHT22;12359;49.716;9.212;2023-07-13T05:54:32;21.10;1.00
24224;DHT22;12359;49.716;9.212;2023-07-13T05:56:58;21.30;1.00
24224;DHT22;12359;49.716;9.212;2023-07-13T05:59:23;21.50;99.90
24224;DHT22;12359;49.716;9.212;2023-07-13T06:01:50;21.50;99.90
24224;DHT22;12359;49.716;9.212;2023-07-13T06:04:18;21.40;99.90
24224;DHT22;12359;49.716;9.212;2023-07-13T06:06:43;21.50;99.90
24224;DHT22;12359;49.716;9.212;2023-07-13T06:09:09;21.50;99.90
24224;DHT22;12359;49.716;9.212;2023-07-13T06:11:35;21.50;99.90
24224;DHT22;12359;49.716;9.212;2023-07-13T06:14:00;21.60;99.90
24224;DHT22;12359;49.716;9.212;2023-07-13T06:16:26;21.70;99.90
24224;DHT22;12359;49.716;9.212;2023-07-13T06:18:52;21.80;99.90
24224;DHT22;12359;49.716;9.212;2023-07-13T06:21:22;22.10;99.90
24224;DHT22;12359;49.716;9.212;2023-07-13T06:23:49;22.40;99.90
24224;DHT22;12359;49.716;9.212;2023-07-13T06:26:16;22.50;96.30
24224;DHT22;12359;49.716;9.212;2023-07-13T06:28:43;22.80;99.90
24224;DHT22;12359;49.716;9.212;2023-07-13T06:31:10;23.40;93.40
24224;DHT22;12359;49.716;9.212;2023-07-13T06:33:37;24.00;21.70
24224;DHT22;12359;49.716;9.212;2023-07-13T06:36:04;24.50;1.00
24224;DHT22;12359;49.716;9.212;2023-07-13T06:38:31;25.30;1.00
24224;DHT22;12359;49.716;9.212;2023-07-13T06:40:56;25.60;1.00
24224;DHT22;12359;49.716;9.212;2023-07-13T06:43:22;25.60;1.00
24224;DHT22;12359;49.716;9.212;2023-07-13T06:45:50;25.70;1.00
24224;DHT22;12359;49.716;9.212;2023-07-13T06:48:18;25.60;1.00
24224;DHT22;12359;49.716;9.212;2023-07-13T06:50:44;26.10;1.00
24224;DHT22;12359;49.716;9.212;2023-07-13T06:53:11;26.90;1.00
24224;DHT22;12359;49.716;9.212;2023-07-13T06:55:37;27.10;99.90
24224;DHT22;12359;49.716;9.212;2023-07-13T06:58:04;27.80;99.90
24224;DHT22;12359;49.716;9.212;2023-07-13T07:00:30;28.50;99.90
24224;DHT22;12359;49.716;9.212;2023-07-13T07:02:56;29.30;99.90
24224;DHT22;12359;49.716;9.212;2023-07-13T07:05:22;29.90;99.90
24224;DHT22;12359;49.716;9.212;2023-07-13T07:07:51;30.30;99.90
24224;DHT22;12359;49.716;9.212;2023-07-13T07:10:18;30.40;99.90
24224;DHT22;12359;49.716;9.212;2023-07-13T07:12:44;30.40;99.90
24224;DHT22;12359;49.716;9.212;2023-07-13T07:15:10;30.30;99.90
24224;DHT22;12359;49.716;9.212;2023-07-13T07:17:36;30.20;99.90
24224;DHT22;12359;49.716;9.212;2023-07-13T07:20:03;30.30;99.90
24224;DHT22;12359;49.716;9.212;2023-07-13T07:22:29;30.50;99.90
24224;DHT22;12359;49.716;9.212;2023-07-13T07:24:56;30.50;99.90
24224;DHT22;12359;49.716;9.212;2023-07-13T07:27:22;30.80;99.90
24224;DHT22;12359;49.716;9.212;2023-07-13T07:29:48;30.60;99.90
24224;DHT22;12359;49.716;9.212;2023-07-13T07:32:13;31.30;99.90
24224;DHT22;12359;49.716;9.212;2023-07-13T07:34:39;31.60;99.90
24224;DHT22;12359;49.716;9.212;2023-07-13T07:37:05;32.00;99.90
24224;DHT22;12359;49.716;9.212;2023-07-13T07:39:31;31.90;99.90
24224;DHT22;12359;49.716;9.212;2023-07-13T07:41:57;32.40;99.90
24224;DHT22;12359;49.716;9.212;2023-07-13T07:44:22;32.20;99.90
24224;DHT22;12359;49.716;9.212;2023-07-13T07:46:48;32.20;99.90
24224;DHT22;12359;49.716;9.212;2023-07-13T07:49:14;32.40;99.90
24224;DHT22;12359;49.716;9.212;2023-07-13T07:51:40;32.60;99.90
24224;DHT22;12359;49.716;9.212;2023-07-13T07:54:06;32.90;99.90
24224;DHT22;12359;49.716;9.212;2023-07-13T07:56:32;33.20;99.90
24224;DHT22;12359;49.716;9.212;2023-07-13T07:58:58;32.90;99.90
24224;DHT22;12359;49.716;9.212;2023-07-13T08:01:24;32.80;99.90
24224;DHT22;12359;49.716;9.212;2023-07-13T08:03:50;32.80;99.90
24224;DHT22;12359;49.716;9.212;2023-07-13T08:06:16;32.40;99.90
24224;DHT22;12359;49.716;9.212;2023-07-13T08:08:42;32.60;99.90
24224;DHT22;12359;49.716;9.212;2023-07-13T08:11:08;32.50;99.90
24224;DHT22;12359;49.716;9.212;2023-07-13T08:13:35;32.40;99.90
24224;DHT22;12359;49.716;9.212;2023-07-13T08:16:01;32.40;99.90
24224;DHT22;12359;49.716;9.212;2023-07-13T08:18:27;32.50;99.90
24224;DHT22;12359;49.716;9.212;2023-07-13T08:20:55;32.30;99.90
24224;DHT22;12359;49.716;9.212;2023-07-13T08:23:25;31.80;99.90
24224;DHT22;12359;49.716;9.212;2023-07-13T08:25:54;31.80;99.90
24224;DHT22;12359;49.716;9.212;2023-07-13T08:28:21;31.90;99.90
24224;DHT22;12359;49.716;9.212;2023-07-13T08:30:47;32.00;99.90
24224;DHT22;12359;49.716;9.212;2023-07-13T08:33:21;32.10;99.90
24224;DHT22;12359;49.716;9.212;2023-07-13T08:35:47;31.90;99.90
24224;DHT22;12359;49.716;9.212;2023-07-13T08:38:14;31.90;99.90
24224;DHT22;12359;49.716;9.212;2023-07-13T08:40:41;31.50;99.90
24224;DHT22;12359;49.716;9.212;2023-07-13T08:43:15;31.50;99.90
24224;DHT22;12359;49.716;9.212;2023-07-13T08:45:46;31.60;99.90
24224;DHT22;12359;49.716;9.212;2023-07-13T08:48:37;30.90;99.90
24224;DHT22;12359;49.716;9.212;2023-07-13T08:54:03;29.60;99.90
24224;DHT22;12359;49.716;9.212;2023-07-13T08:56:32;29.70;99.90
24224;DHT22;12359;49.716;9.212;2023-07-13T08:59:03;30.50;99.90
24224;DHT22;12359;49.716;9.212;2023-07-13T09:04:34;30.80;99.90
24224;DHT22;12359;49.716;9.212;2023-07-13T09:09:58;30.30;99.90
24224;DHT22;12359;49.716;9.212;2023-07-13T09:12:52;30.30;99.90
24224;DHT22;12359;49.716;9.212;2023-07-13T09:15:28;30.30;99.90
24224;DHT22;12359;49.716;9.212;2023-07-13T09:18:03;30.50;99.90
24224;DHT22;12359;49.716;9.212;2023-07-13T09:20:35;30.50;99.90
24224;DHT22;12359;49.716;9.212;2023-07-13T09:23:06;31.10;99.90
24224;DHT22;12359;49.716;9.212;2023-07-13T09:25:35;31.70;99.90
24224;DHT22;12359;49.716;9.212;2023-07-13T09:28:13;31.40;99.90
24224;DHT22;12359;49.716;9.212;2023-07-13T09:33:22;31.10;99.90
24224;DHT22;12359;49.716;9.212;2023-07-13T09:35:48;30.90;99.90
24224;DHT22;12359;49.716;9.212;2023-07-13T09:38:18;31.00;99.90
24224;DHT22;12359;49.716;9.212;2023-07-13T09:43:15;31.00;99.90
24224;DHT22;12359;49.716;9.212;2023-07-13T09:45:46;31.20;99.90
24224;DHT22;12359;49.716;9.212;2023-07-13T09:48:14;31.50;99.90
24224;DHT22;12359;49.716;9.212;2023-07-13T09:50:41;32.10;99.90
24224;DHT22;12359;49.716;9.212;2023-07-13T09:53:15;32.40;99.90
24224;DHT22;12359;49.716;9.212;2023-07-13T09:55:42;32.60;99.90
24224;DHT22;12359;49.716;9.212;2023-07-13T10:00:43;31.90;99.90
24224;DHT22;12359;49.716;9.212;2023-07-13T10:03:26;31.50;99.90
24224;DHT22;12359;49.716;9.212;2023-07-13T10:05:52;30.80;99.90
24224;DHT22;12359;49.716;9.212;2023-07-13T10:08:27;30.90;99.90
24224;DHT22;12359;49.716;9.212;2023-07-13T10:11:00;30.80;99.90
24224;DHT22;12359;49.716;9.212;2023-07-13T10:15:58;30.90;99.90
24224;DHT22;12359;49.716;9.212;2023-07-13T10:18:25;30.20;99.90
24224;DHT22;12359;49.716;9.212;2023-07-13T10:21:09;30.00;99.90
24224;DHT22;12359;49.716;9.212;2023-07-13T10:23:36;30.10;99.90
24224;DHT22;12359;49.716;9.212;2023-07-13T10:26:02;30.60;99.90
24224;DHT22;12359;49.716;9.212;2023-07-13T10:28:36;30.90;99.90
24224;DHT22;12359;49.716;9.212;2023-07-13T10:31:05;31.40;99.90
24224;DHT22;12359;49.716;9.212;2023-07-13T10:33:35;31.50;99.90
24224;DHT22;12359;49.716;9.212;2023-07-13T10:38:57;31.20;99.90
24224;DHT22;12359;49.716;9.212;2023-07-13T10:41:26;31.40;99.90
24224;DHT22;12359;49.716;9.212;2023-07-13T10:43:55;31.60;99.90
24224;DHT22;12359;49.716;9.212;2023-07-13T10:46:25;31.30;99.90
24224;DHT22;12359;49.716;9.212;2023-07-13T10:49:00;30.50;99.90
24224;DHT22;12359;49.716;9.212;2023-07-13T10:51:27;29.80;99.90
24224;DHT22;12359;49.716;9.212;2023-07-13T10:54:19;29.10;99.90
24224;DHT22;12359;49.716;9.212;2023-07-13T10:59:33;28.50;99.90
24224;DHT22;12359;49.716;9.212;2023-07-13T11:04:43;28.40;99.90
24224;DHT22;12359;49.716;9.212;2023-07-13T11:07:18;28.20;99.90
24224;DHT22;12359;49.716;9.212;2023-07-13T11:09:52;28.30;99.90
24224;DHT22;12359;49.716;9.212;2023-07-13T11:23:15;28.90;99.90
24224;DHT22;12359;49.716;9.212;2023-07-13T11:25:43;28.50;99.90
24224;DHT22;12359;49.716;9.212;2023-07-13T11:36:06;29.10;99.90
24224;DHT22;12359;49.716;9.212;2023-07-13T11:38:47;29.10;99.90
24224;DHT22;12359;49.716;9.212;2023-07-13T11:41:18;29.00;99.90
24224;DHT22;12359;49.716;9.212;2023-07-13T11:43:45;29.00;99.90
24224;DHT22;12359;49.716;9.212;2023-07-13T11:46:17;28.80;99.90
24224;DHT22;12359;49.716;9.212;2023-07-13T11:48:45;28.60;99.90
24224;DHT22;12359;49.716;9.212;2023-07-13T11:51:38;28.40;99.90
24224;DHT22;12359;49.716;9.212;2023-07-13T11:54:06;28.50;99.90
24224;DHT22;12359;49.716;9.212;2023-07-13T11:56:36;28.70;99.90
24224;DHT22;12359;49.716;9.212;2023-07-13T11:59:07;28.70;99.90
24224;DHT22;12359;49.716;9.212;2023-07-13T12:01:36;28.80;99.90
24224;DHT22;12359;49.716;9.212;2023-07-13T12:04:19;28.90;99.90
24224;DHT22;12359;49.716;9.212;2023-07-13T12:06:47;29.00;99.90
24224;DHT22;12359;49.716;9.212;2023-07-13T12:09:18;29.70;99.90
24224;DHT22;12359;49.716;9.212;2023-07-13T12:11:50;30.10;99.90
24224;DHT22;12359;49.716;9.212;2023-07-13T12:14:17;30.20;99.90
24224;DHT22;12359;49.716;9.212;2023-07-13T12:16:47;30.10;99.90
24224;DHT22;12359;49.716;9.212;2023-07-13T12:19:23;29.30;99.90
24224;DHT22;12359;49.716;9.212;2023-07-13T12:21:49;29.00;99.90
24224;DHT22;12359;49.716;9.212;2023-07-13T12:24:19;28.80;99.90
24224;DHT22;12359;49.716;9.212;2023-07-13T12:26:54;28.30;99.90
24224;DHT22;12359;49.716;9.212;2023-07-13T12:29:20;28.20;99.90
24224;DHT22;12359;49.716;9.212;2023-07-13T12:31:48;28.00;99.90
24224;DHT22;12359;49.716;9.212;2023-07-13T12:34:19;27.80;99.90
24224;DHT22;12359;49.716;9.212;2023-07-13T12:37:00;27.50;99.90
24224;DHT22;12359;49.716;9.212;2023-07-13T12:44:47;28.20;99.90
24224;DHT22;12359;49.716;9.212;2023-07-13T12:47:14;28.90;99.90
24224;DHT22;12359;49.716;9.212;2023-07-13T12:49:43;29.50;99.90
24224;DHT22;12359;49.716;9.212;2023-07-13T12:52:24;29.80;99.90
24224;DHT22;12359;49.716;9.212;2023-07-13T12:55:07;30.30;99.90
24224;DHT22;12359;49.716;9.212;2023-07-13T12:58:03;30.50;99.90
24224;DHT22;12359;49.716;9.212;2023-07-13T13:00:32;30.40;99.90
24224;DHT22;12359;49.716;9.212;2023-07-13T13:03:02;30.10;99.90
24224;DHT22;12359;49.716;9.212;2023-07-13T13:05:30;29.80;99.90
24224;DHT22;12359;49.716;9.212;2023-07-13T13:07:56;29.60;99.90
24224;DHT22;12359;49.716;9.212;2023-07-13T13:10:22;29.40;99.90
24224;DHT22;12359;49.716;9.212;2023-07-13T13:12:48;28.80;99.90
24224;DHT22;12359;49.716;9.212;2023-07-13T13:15:14;29.10;99.90
24224;DHT22;12359;49.716;9.212;2023-07-13T13:17:40;29.60;99.90
24224;DHT22;12359;49.716;9.212;2023-07-13T13:20:31;30.30;99.90
24224;DHT22;12359;49.716;9.212;2023-07-13T13:22:57;30.40;99.90
24224;DHT22;12359;49.716;9.212;2023-07-13T13:25:23;30.20;99.90
24224;DHT22;12359;49.716;9.212;2023-07-13T13:27:48;30.20;99.90
24224;DHT22;12359;49.716;9.212;2023-07-13T13:30:17;30.10;99.90
24224;DHT22;12359;49.716;9.212;2023-07-13T13:32:45;30.30;99.90
24224;DHT22;12359;49.716;9.212;2023-07-13T13:35:20;30.40;99.90
24224;DHT22;12359;49.716;9.212;2023-07-13T13:37:46;30.30;99.90
24224;DHT22;12359;49.716;9.212;2023-07-13T13:40:18;30.00;99.90
24224;DHT22;12359;49.716;9.212;2023-07-13T13:42:44;29.80;99.90
24224;DHT22;12359;49.716;9.212;2023-07-13T13:45:10;29.60;99.90
24224;DHT22;12359;49.716;9.212;2023-07-13T13:47:38;29.20;99.90
24224;DHT22;12359;49.716;9.212;2023-07-13T13:50:16;28.80;99.90
24224;DHT22;12359;49.716;9.212;2023-07-13T13:52:42;28.50;99.90
24224;DHT22;12359;49.716;9.212;2023-07-13T13:55:14;28.30;99.90
24224;DHT22;12359;49.716;9.212;2023-07-13T13:57:41;28.30;99.90
24224;DHT22;12359;49.716;9.212;2023-07-13T14:00:09;28.00;99.90
24224;DHT22;12359;49.716;9.212;2023-07-13T14:02:37;27.70;99.90
24224;DHT22;12359;49.716;9.212;2023-07-13T14:05:03;27.60;99.90
24224;DHT22;12359;49.716;9.212;2023-07-13T14:07:29;27.50;99.90
24224;DHT22;12359;49.716;9.212;2023-07-13T14:09:59;27.60;99.90
24224;DHT22;12359;49.716;9.212;2023-07-13T14:12:27;27.70;99.90
24224;DHT22;12359;49.716;9.212;2023-07-13T14:14:55;27.60;99.90
24224;DHT22;12359;49.716;9.212;2023-07-13T14:17:27;27.50;99.90
24224;DHT22;12359;49.716;9.212;2023-07-13T14:19:53;27.80;99.90
24224;DHT22;12359;49.716;9.212;2023-07-13T14:22:26;28.00;99.90
24224;DHT22;12359;49.716;9.212;2023-07-13T14:24:55;28.20;99.90
24224;DHT22;12359;49.716;9.212;2023-07-13T14:27:23;28.10;99.90
24224;DHT22;12359;49.716;9.212;2023-07-13T14:29:50;28.20;99.90
24224;DHT22;12359;49.716;9.212;2023-07-13T14:32:15;28.20;99.90
24224;DHT22;12359;49.716;9.212;2023-07-13T14:34:41;28.30;99.90
24224;DHT22;12359;49.716;9.212;2023-07-13T14:37:13;28.20;99.90
24224;DHT22;12359;49.716;9.212;2023-07-13T14:39:40;27.90;99.90
24224;DHT22;12359;49.716;9.212;2023-07-13T14:42:09;27.90;99.90
24224;DHT22;12359;49.716;9.212;2023-07-13T14:44:35;27.90;99.90
24224;DHT22;12359;49.716;9.212;2023-07-13T14:47:04;28.00;99.90
24224;DHT22;12359;49.716;9.212;2023-07-13T14:49:32;28.20;99.90
24224;DHT22;12359;49.716;9.212;2023-07-13T14:52:02;28.10;99.90
24224;DHT22;12359;49.716;9.212;2023-07-13T14:54:29;28.30;99.90
24224;DHT22;12359;49.716;9.212;2023-07-13T14:56:55;28.50;99.90
24224;DHT22;12359;49.716;9.212;2023-07-13T14:59:20;28.40;99.90
24224;DHT22;12359;49.716;9.212;2023-07-13T15:01:48;28.30;99.90
24224;DHT22;12359;49.716;9.212;2023-07-13T15:04:14;28.30;99.90
24224;DHT22;12359;49.716;9.212;2023-07-13T15:07:13;28.20;99.90
24224;DHT22;12359;49.716;9.212;2023-07-13T15:09:43;27.90;99.90
24224;DHT22;12359;49.716;9.212;2023-07-13T15:12:09;27.90;99.90
24224;DHT22;12359;49.716;9.212;2023-07-13T15:14:34;27.90;99.90
24224;DHT22;12359;49.716;9.212;2023-07-13T15:17:00;27.70;99.90
24224;DHT22;12359;49.716;9.212;2023-07-13T15:19:26;27.90;99.90
24224;DHT22;12359;49.716;9.212;2023-07-13T15:21:54;28.10;99.90
24224;DHT22;12359;49.716;9.212;2023-07-13T15:24:21;28.20;99.90
24224;DHT22;12359;49.716;9.212;2023-07-13T15:26:47;28.30;99.90
24224;DHT22;12359;49.716;9.212;2023-07-13T15:29:15;28.60;99.90
24224;DHT22;12359;49.716;9.212;2023-07-13T15:31:41;28.50;99.90
24224;DHT22;12359;49.716;9.212;2023-07-13T15:34:12;28.40;99.90
24224;DHT22;12359;49.716;9.212;2023-07-13T15:36:39;28.00;99.90
24224;DHT22;12359;49.716;9.212;2023-07-13T15:39:05;28.00;99.90
24224;DHT22;12359;49.716;9.212;2023-07-13T15:41:32;27.90;99.90
24224;DHT22;12359;49.716;9.212;2023-07-13T15:43:59;27.90;99.90
24224;DHT22;12359;49.716;9.212;2023-07-13T15:46:27;27.70;99.90
24224;DHT22;12359;49.716;9.212;2023-07-13T15:48:54;27.70;99.90
24224;DHT22;12359;49.716;9.212;2023-07-13T15:51:27;27.70;99.90
24224;DHT22;12359;49.716;9.212;2023-07-13T15:53:55;27.70;99.90
24224;DHT22;12359;49.716;9.212;2023-07-13T15:56:24;27.80;99.90
24224;DHT22;12359;49.716;9.212;2023-07-13T15:58:51;27.80;99.90
24224;DHT22;12359;49.716;9.212;2023-07-13T16:01:17;27.60;99.90
24224;DHT22;12359;49.716;9.212;2023-07-13T16:03:45;27.40;99.90
24224;DHT22;12359;49.716;9.212;2023-07-13T16:08:44;27.10;99.90
24224;DHT22;12359;49.716;9.212;2023-07-13T16:11:21;26.90;99.90
24224;DHT22;12359;49.716;9.212;2023-07-13T16:13:48;26.90;99.90
24224;DHT22;12359;49.716;9.212;2023-07-13T16:16:21;26.80;99.90
24224;DHT22;12359;49.716;9.212;2023-07-13T16:18:54;26.80;99.90
24224;DHT22;12359;49.716;9.212;2023-07-13T16:21:26;26.70;99.90
24224;DHT22;12359;49.716;9.212;2023-07-13T16:23:53;26.60;99.90
24224;DHT22;12359;49.716;9.212;2023-07-13T16:26:29;26.60;99.90
24224;DHT22;12359;49.716;9.212;2023-07-13T16:29:24;26.60;99.90
24224;DHT22;12359;49.716;9.212;2023-07-13T16:32:04;26.60;99.90
24224;DHT22;12359;49.716;9.212;2023-07-13T16:34:31;26.60;99.90